Terminal Aerodrome Forecast
Issued by NWS

Home | Current Version | Previous Version | Text Only | Print | Product List | Glossary On
Versions: 1 2 3 4 5 6 7 8 9 10 11 12 13 14 15 16 17 18 19 20
000
FTUS41 KPBZ 282058 AAB
TAFBVI
TAF AMD
KBVI 282058Z 2821/2918 33012KT P6SM OVC010
     FM290000 34008KT P6SM BKN009
     FM291000 35005KT P6SM BKN015
     FM291700 36008KT P6SM SCT200=

USA.gov is the U.S. government's official web portal to all federal, state and local government web resources and services.